Gates, Oregon
Current Conditions -  °F | °C
As of 6:56 AM on Wednesday 22 Oct 2014 (Local Time) from KSLE Reporting Station
Light Rain Light Rain  
Wind Chill: 56°   Ceiling: 8000
Heat Index: 56°   Visibility: 9mi
Dew Point: 52°   Wind: 14mph
Humidity: 87%   Direction: 160°SSE
Pressure: 29.78"   Gusts: NA
Location:  44.76°N, 122.42°W
Report Text: KSLE 221356Z 16012KT 9SM -RA OVC080 13/11 A2978 RMK AO2 SLP084 P0010 T01330111
Loading
Personal Weather Stations






























Interactive Weather Map
Tropical Storm Tracking
New forecast layout! Learn more

10-Day Weather Forecast

Advertisements
Track Severe Weather on mobile